sensor_id;sensor_type;location;lat;lon;timestamp;pressure;altitude;pressure_sealevel;temperature;humidity
35551;BME280;21655;46.056;13.616;2023-04-24T00:00:12;99656.09;;;14.22;100.00
35551;BME280;21655;46.056;13.616;2023-04-24T00:02:41;99655.28;;;14.21;100.00
35551;BME280;21655;46.056;13.616;2023-04-24T00:05:12;99653.75;;;14.25;100.00
35551;BME280;21655;46.056;13.616;2023-04-24T00:07:38;99649.66;;;14.28;100.00
35551;BME280;21655;46.056;13.616;2023-04-24T00:10:03;99647.03;;;14.39;100.00
35551;BME280;21655;46.056;13.616;2023-04-24T00:12:30;99635.44;;;14.36;100.00
35551;BME280;21655;46.056;13.616;2023-04-24T00:14:56;99637.41;;;14.35;100.00
35551;BME280;21655;46.056;13.616;2023-04-24T00:17:21;99636.31;;;14.36;100.00
35551;BME280;21655;46.056;13.616;2023-04-24T00:19:47;99637.78;;;14.39;100.00
35551;BME280;21655;46.056;13.616;2023-04-24T00:22:13;99634.81;;;14.34;100.00
35551;BME280;21655;46.056;13.616;2023-04-24T00:24:40;99642.75;;;14.30;100.00
35551;BME280;21655;46.056;13.616;2023-04-24T00:27:06;99644.75;;;14.17;100.00
35551;BME280;21655;46.056;13.616;2023-04-24T00:29:31;99627.13;;;14.23;100.00
35551;BME280;21655;46.056;13.616;2023-04-24T00:31:57;99632.72;;;14.23;100.00
35551;BME280;21655;46.056;13.616;2023-04-24T00:34:22;99629.44;;;14.32;100.00
35551;BME280;21655;46.056;13.616;2023-04-24T00:36:48;99621.50;;;14.36;100.00
35551;BME280;21655;46.056;13.616;2023-04-24T00:39:20;99628.84;;;14.24;100.00
35551;BME280;21655;46.056;13.616;2023-04-24T00:41:46;99625.25;;;14.10;100.00
35551;BME280;21655;46.056;13.616;2023-04-24T00:44:12;99612.22;;;13.98;100.00
35551;BME280;21655;46.056;13.616;2023-04-24T00:46:38;99608.50;;;14.10;100.00
35551;BME280;21655;46.056;13.616;2023-04-24T00:49:04;99610.66;;;14.21;100.00
35551;BME280;21655;46.056;13.616;2023-04-24T00:51:31;99610.84;;;14.26;100.00
35551;BME280;21655;46.056;13.616;2023-04-24T00:53:58;99599.94;;;14.18;100.00
35551;BME280;21655;46.056;13.616;2023-04-24T00:56:24;99607.88;;;14.21;100.00
35551;BME280;21655;46.056;13.616;2023-04-24T00:58:50;99599.88;;;14.25;100.00
35551;BME280;21655;46.056;13.616;2023-04-24T01:01:15;99587.72;;;14.13;100.00
35551;BME280;21655;46.056;13.616;2023-04-24T01:03:41;99588.34;;;14.15;100.00
35551;BME280;21655;46.056;13.616;2023-04-24T01:06:08;99583.44;;;14.17;100.00
35551;BME280;21655;46.056;13.616;2023-04-24T01:08:34;99577.84;;;14.17;100.00
35551;BME280;21655;46.056;13.616;2023-04-24T01:11:01;99572.25;;;14.23;100.00
35551;BME280;21655;46.056;13.616;2023-04-24T01:13:28;99580.88;;;14.09;100.00
35551;BME280;21655;46.056;13.616;2023-04-24T01:15:54;99578.53;;;13.99;100.00
35551;BME280;21655;46.056;13.616;2023-04-24T01:18:20;99587.31;;;14.03;100.00
35551;BME280;21655;46.056;13.616;2023-04-24T01:20:50;99586.88;;;14.06;100.00
35551;BME280;21655;46.056;13.616;2023-04-24T01:23:16;99593.97;;;14.02;100.00
35551;BME280;21655;46.056;13.616;2023-04-24T01:25:42;99586.34;;;13.84;100.00
35551;BME280;21655;46.056;13.616;2023-04-24T01:28:08;99595.09;;;13.88;100.00
35551;BME280;21655;46.056;13.616;2023-04-24T01:30:33;99588.66;;;13.94;100.00
35551;BME280;21655;46.056;13.616;2023-04-24T01:32:59;99579.22;;;13.95;100.00
35551;BME280;21655;46.056;13.616;2023-04-24T01:35:25;99585.88;;;13.94;100.00
35551;BME280;21655;46.056;13.616;2023-04-24T01:37:50;99584.56;;;13.90;100.00
35551;BME280;21655;46.056;13.616;2023-04-24T01:40:16;99592.53;;;13.86;100.00
35551;BME280;21655;46.056;13.616;2023-04-24T01:42:41;99576.66;;;13.87;100.00
35551;BME280;21655;46.056;13.616;2023-04-24T01:45:10;99579.91;;;13.84;100.00
35551;BME280;21655;46.056;13.616;2023-04-24T01:47:36;99571.13;;;13.80;100.00
35551;BME280;21655;46.056;13.616;2023-04-24T01:50:02;99559.53;;;13.83;100.00
35551;BME280;21655;46.056;13.616;2023-04-24T01:52:28;99563.00;;;13.79;100.00
35551;BME280;21655;46.056;13.616;2023-04-24T01:54:56;99570.75;;;13.70;100.00
35551;BME280;21655;46.056;13.616;2023-04-24T01:57:24;99559.63;;;13.64;100.00
35551;BME280;21655;46.056;13.616;2023-04-24T01:59:51;99553.13;;;13.76;100.00
35551;BME280;21655;46.056;13.616;2023-04-24T02:02:16;99549.50;;;13.76;100.00
35551;BME280;21655;46.056;13.616;2023-04-24T02:04:42;99552.06;;;13.77;100.00
35551;BME280;21655;46.056;13.616;2023-04-24T02:07:07;99545.41;;;13.78;100.00
35551;BME280;21655;46.056;13.616;2023-04-24T02:09:33;99537.69;;;13.74;100.00
35551;BME280;21655;46.056;13.616;2023-04-24T02:11:58;99531.28;;;13.73;100.00
35551;BME280;21655;46.056;13.616;2023-04-24T02:14:24;99535.56;;;13.76;100.00
35551;BME280;21655;46.056;13.616;2023-04-24T02:16:49;99537.03;;;13.78;100.00
35551;BME280;21655;46.056;13.616;2023-04-24T02:19:15;99538.97;;;13.84;100.00
35551;BME280;21655;46.056;13.616;2023-04-24T02:21:41;99543.25;;;13.80;100.00
35551;BME280;21655;46.056;13.616;2023-04-24T02:24:06;99541.34;;;13.81;100.00
35551;BME280;21655;46.056;13.616;2023-04-24T02:26:32;99538.56;;;13.74;100.00
35551;BME280;21655;46.056;13.616;2023-04-24T02:28:57;99535.59;;;13.69;100.00
35551;BME280;21655;46.056;13.616;2023-04-24T02:31:23;99536.38;;;13.83;100.00
35551;BME280;21655;46.056;13.616;2023-04-24T02:33:48;99543.25;;;13.80;100.00
35551;BME280;21655;46.056;13.616;2023-04-24T02:36:14;99540.09;;;13.70;100.00
35551;BME280;21655;46.056;13.616;2023-04-24T02:38:39;99541.56;;;13.73;100.00
35551;BME280;21655;46.056;13.616;2023-04-24T02:41:05;99536.41;;;13.76;100.00
35551;BME280;21655;46.056;13.616;2023-04-24T02:43:32;99532.34;;;13.79;100.00
35551;BME280;21655;46.056;13.616;2023-04-24T02:45:58;99531.47;;;13.78;100.00
35551;BME280;21655;46.056;13.616;2023-04-24T02:48:23;99533.22;;;13.73;100.00
35551;BME280;21655;46.056;13.616;2023-04-24T02:50:49;99520.59;;;13.70;100.00
35551;BME280;21655;46.056;13.616;2023-04-24T02:53:15;99520.56;;;13.77;100.00
35551;BME280;21655;46.056;13.616;2023-04-24T02:55:41;99523.34;;;13.77;100.00
35551;BME280;21655;46.056;13.616;2023-04-24T02:58:06;99520.59;;;13.70;100.00
35551;BME280;21655;46.056;13.616;2023-04-24T03:00:32;99523.19;;;13.59;100.00
35551;BME280;21655;46.056;13.616;2023-04-24T03:02:58;99518.94;;;13.56;100.00
35551;BME280;21655;46.056;13.616;2023-04-24T03:05:23;99509.06;;;13.54;100.00
35551;BME280;21655;46.056;13.616;2023-04-24T03:07:49;99511.59;;;13.68;100.00
35551;BME280;21655;46.056;13.616;2023-04-24T03:10:14;99493.81;;;13.69;100.00
35551;BME280;21655;46.056;13.616;2023-04-24T03:12:40;99498.50;;;13.69;100.00
35551;BME280;21655;46.056;13.616;2023-04-24T03:15:06;99496.97;;;13.79;100.00
35551;BME280;21655;46.056;13.616;2023-04-24T03:17:31;99492.69;;;13.77;100.00
35551;BME280;21655;46.056;13.616;2023-04-24T03:19:57;99500.78;;;13.85;100.00
35551;BME280;21655;46.056;13.616;2023-04-24T03:22:23;99501.00;;;13.83;100.00
35551;BME280;21655;46.056;13.616;2023-04-24T03:24:48;99506.22;;;13.73;100.00
35551;BME280;21655;46.056;13.616;2023-04-24T03:27:14;99504.13;;;13.56;100.00
35551;BME280;21655;46.056;13.616;2023-04-24T03:29:39;99501.34;;;13.56;100.00
35551;BME280;21655;46.056;13.616;2023-04-24T03:32:05;99497.75;;;13.49;100.00
35551;BME280;21655;46.056;13.616;2023-04-24T03:34:30;99496.25;;;13.40;100.00
35551;BME280;21655;46.056;13.616;2023-04-24T03:36:56;99488.94;;;13.52;100.00
35551;BME280;21655;46.056;13.616;2023-04-24T03:39:21;99476.72;;;13.53;100.00
35551;BME280;21655;46.056;13.616;2023-04-24T03:41:46;99476.31;;;13.49;100.00
35551;BME280;21655;46.056;13.616;2023-04-24T03:44:12;99476.53;;;13.54;100.00
35551;BME280;21655;46.056;13.616;2023-04-24T03:46:37;99481.84;;;13.56;100.00
35551;BME280;21655;46.056;13.616;2023-04-24T03:49:03;99474.13;;;13.58;100.00
35551;BME280;21655;46.056;13.616;2023-04-24T03:51:28;99477.56;;;13.60;100.00
35551;BME280;21655;46.056;13.616;2023-04-24T03:53:55;99473.28;;;13.57;100.00
35551;BME280;21655;46.056;13.616;2023-04-24T03:56:21;99473.13;;;13.46;100.00
35551;BME280;21655;46.056;13.616;2023-04-24T03:58:46;99476.56;;;13.41;100.00
35551;BME280;21655;46.056;13.616;2023-04-24T04:01:11;99471.84;;;13.42;100.00
35551;BME280;21655;46.056;13.616;2023-04-24T04:03:37;99477.84;;;13.39;100.00
35551;BME280;21655;46.056;13.616;2023-04-24T04:06:03;99483.22;;;13.34;100.00
35551;BME280;21655;46.056;13.616;2023-04-24T04:08:28;99480.84;;;13.44;100.00
35551;BME280;21655;46.056;13.616;2023-04-24T04:10:53;99476.56;;;13.41;100.00
35551;BME280;21655;46.056;13.616;2023-04-24T04:13:20;99473.34;;;13.44;100.00
35551;BME280;21655;46.056;13.616;2023-04-24T04:15:45;99465.44;;;13.41;100.00
35551;BME280;21655;46.056;13.616;2023-04-24T04:18:10;99461.56;;;13.42;100.00
35551;BME280;21655;46.056;13.616;2023-04-24T04:20:36;99459.38;;;13.51;100.00
35551;BME280;21655;46.056;13.616;2023-04-24T04:23:02;99459.19;;;13.52;100.00
35551;BME280;21655;46.056;13.616;2023-04-24T04:25:27;99457.22;;;13.53;100.00
35551;BME280;21655;46.056;13.616;2023-04-24T04:27:54;99455.97;;;13.49;100.00
35551;BME280;21655;46.056;13.616;2023-04-24T04:30:20;99452.34;;;13.42;100.00
35551;BME280;21655;46.056;13.616;2023-04-24T04:32:46;99447.16;;;13.52;100.00
35551;BME280;21655;46.056;13.616;2023-04-24T04:35:11;99453.59;;;13.52;100.00
35551;BME280;21655;46.056;13.616;2023-04-24T04:37:37;99458.50;;;13.50;100.00
35551;BME280;21655;46.056;13.616;2023-04-24T04:40:03;99463.69;;;13.47;100.00
35551;BME280;21655;46.056;13.616;2023-04-24T04:42:32;99469.03;;;13.48;100.00
35551;BME280;21655;46.056;13.616;2023-04-24T04:45:01;99471.81;;;13.48;100.00
35551;BME280;21655;46.056;13.616;2023-04-24T04:47:27;99464.50;;;13.54;100.00
35551;BME280;21655;46.056;13.616;2023-04-24T04:49:53;99455.50;;;13.58;100.00
35551;BME280;21655;46.056;13.616;2023-04-24T04:52:19;99459.34;;;13.57;100.00
35551;BME280;21655;46.056;13.616;2023-04-24T04:54:44;99451.44;;;13.61;100.00
35551;BME280;21655;46.056;13.616;2023-04-24T04:57:11;99454.81;;;13.69;100.00
35551;BME280;21655;46.056;13.616;2023-04-24T04:59:37;99457.81;;;13.68;100.00
35551;BME280;21655;46.056;13.616;2023-04-24T05:02:02;99458.88;;;13.67;100.00
35551;BME280;21655;46.056;13.616;2023-04-24T05:04:28;99464.91;;;13.64;100.00
35551;BME280;21655;46.056;13.616;2023-04-24T05:06:53;99469.41;;;13.58;100.00
35551;BME280;21655;46.056;13.616;2023-04-24T05:09:19;99474.38;;;13.56;100.00
35551;BME280;21655;46.056;13.616;2023-04-24T05:11:44;99477.59;;;13.53;100.00
35551;BME280;21655;46.056;13.616;2023-04-24T05:14:10;99474.81;;;13.53;100.00
35551;BME280;21655;46.056;13.616;2023-04-24T05:16:38;99467.28;;;13.54;100.00
35551;BME280;21655;46.056;13.616;2023-04-24T05:19:03;99476.06;;;13.57;100.00
35551;BME280;21655;46.056;13.616;2023-04-24T05:21:28;99464.47;;;13.60;100.00
35551;BME280;21655;46.056;13.616;2023-04-24T05:23:54;99456.13;;;13.60;100.00
35551;BME280;21655;46.056;13.616;2023-04-24T05:26:20;99460.34;;;13.76;100.00
35551;BME280;21655;46.056;13.616;2023-04-24T05:28:45;99463.56;;;13.73;100.00
35551;BME280;21655;46.056;13.616;2023-04-24T05:31:10;99457.59;;;13.69;100.00
35551;BME280;21655;46.056;13.616;2023-04-24T05:33:37;99466.56;;;13.78;100.00
35551;BME280;21655;46.056;13.616;2023-04-24T05:36:03;99465.59;;;13.53;100.00
35551;BME280;21655;46.056;13.616;2023-04-24T05:38:30;99465.34;;;13.61;100.00
35551;BME280;21655;46.056;13.616;2023-04-24T05:40:56;99466.38;;;13.66;100.00
35551;BME280;21655;46.056;13.616;2023-04-24T05:43:21;99469.56;;;13.70;100.00
35551;BME280;21655;46.056;13.616;2023-04-24T05:45:47;99466.78;;;13.70;100.00
35551;BME280;21655;46.056;13.616;2023-04-24T05:48:12;99472.22;;;13.58;100.00
35551;BME280;21655;46.056;13.616;2023-04-24T05:50:37;99475.19;;;13.57;100.00
35551;BME280;21655;46.056;13.616;2023-04-24T05:53:03;99471.13;;;13.59;100.00
35551;BME280;21655;46.056;13.616;2023-04-24T05:55:30;99464.28;;;13.62;100.00
35551;BME280;21655;46.056;13.616;2023-04-24T05:57:56;99466.78;;;13.70;100.00
35551;BME280;21655;46.056;13.616;2023-04-24T06:00:21;99473.41;;;13.75;100.00
35551;BME280;21655;46.056;13.616;2023-04-24T06:02:47;99465.47;;;13.79;100.00
35551;BME280;21655;46.056;13.616;2023-04-24T06:05:13;99460.72;;;13.79;100.00
35551;BME280;21655;46.056;13.616;2023-04-24T06:07:38;99466.50;;;13.84;100.00
35551;BME280;21655;46.056;13.616;2023-04-24T06:10:04;99468.88;;;13.81;100.00
35551;BME280;21655;46.056;13.616;2023-04-24T06:12:29;99479.78;;;13.82;100.00
35551;BME280;21655;46.056;13.616;2023-04-24T06:14:55;99472.31;;;13.83;100.00
35551;BME280;21655;46.056;13.616;2023-04-24T06:17:21;99475.88;;;13.90;100.00
35551;BME280;21655;46.056;13.616;2023-04-24T06:19:46;99479.75;;;13.89;100.00
35551;BME280;21655;46.056;13.616;2023-04-24T06:22:12;99472.09;;;13.84;100.00
35551;BME280;21655;46.056;13.616;2023-04-24T06:24:39;99468.44;;;13.84;100.00
35551;BME280;21655;46.056;13.616;2023-04-24T06:27:05;99474.19;;;13.89;100.00
35551;BME280;21655;46.056;13.616;2023-04-24T06:29:30;99475.69;;;13.91;100.00
35551;BME280;21655;46.056;13.616;2023-04-24T06:31:56;99472.47;;;13.88;100.00
35551;BME280;21655;46.056;13.616;2023-04-24T06:34:21;99476.59;;;13.85;100.00
35551;BME280;21655;46.056;13.616;2023-04-24T06:36:47;99468.81;;;13.94;100.00
35551;BME280;21655;46.056;13.616;2023-04-24T06:39:12;99469.03;;;13.92;100.00
35551;BME280;21655;46.056;13.616;2023-04-24T06:41:38;99468.34;;;13.97;100.00
35551;BME280;21655;46.056;13.616;2023-04-24T06:44:05;99463.28;;;13.87;100.00
35551;BME280;21655;46.056;13.616;2023-04-24T06:46:30;99462.19;;;13.88;100.00
35551;BME280;21655;46.056;13.616;2023-04-24T06:48:56;99463.88;;;13.96;100.00
35551;BME280;21655;46.056;13.616;2023-04-24T06:51:25;99456.59;;;13.95;100.00
35551;BME280;21655;46.056;13.616;2023-04-24T06:53:54;99452.47;;;13.97;100.00
35551;BME280;21655;46.056;13.616;2023-04-24T06:56:21;99455.19;;;14.10;100.00
35551;BME280;21655;46.056;13.616;2023-04-24T06:58:47;99453.31;;;14.04;100.00
35551;BME280;21655;46.056;13.616;2023-04-24T07:01:13;99453.97;;;14.00;100.00
35551;BME280;21655;46.056;13.616;2023-04-24T07:03:38;99457.25;;;13.90;100.00
35551;BME280;21655;46.056;13.616;2023-04-24T07:06:04;99457.28;;;13.84;100.00
35551;BME280;21655;46.056;13.616;2023-04-24T07:08:30;99453.28;;;13.73;100.00
35551;BME280;21655;46.056;13.616;2023-04-24T07:10:56;99448.97;;;13.77;100.00
35551;BME280;21655;46.056;13.616;2023-04-24T07:13:22;99451.13;;;13.75;100.00
35551;BME280;21655;46.056;13.616;2023-04-24T07:15:48;99452.72;;;13.58;100.00
35551;BME280;21655;46.056;13.616;2023-04-24T07:18:16;99453.50;;;13.65;100.00
35551;BME280;21655;46.056;13.616;2023-04-24T07:20:42;99445.16;;;13.65;100.00
35551;BME280;21655;46.056;13.616;2023-04-24T07:23:07;99452.03;;;13.69;100.00
35551;BME280;21655;46.056;13.616;2023-04-24T07:25:33;99440.66;;;13.64;100.00
35551;BME280;21655;46.056;13.616;2023-04-24T07:27:58;99431.41;;;13.77;100.00
35551;BME280;21655;46.056;13.616;2023-04-24T07:30:24;99433.28;;;13.83;100.00
35551;BME280;21655;46.056;13.616;2023-04-24T07:32:49;99430.34;;;13.71;100.00
35551;BME280;21655;46.056;13.616;2023-04-24T07:35:16;99443.38;;;13.77;100.00
35551;BME280;21655;46.056;13.616;2023-04-24T07:37:41;99432.94;;;13.66;100.00
35551;BME280;21655;46.056;13.616;2023-04-24T07:40:14;99421.28;;;13.82;100.00
35551;BME280;21655;46.056;13.616;2023-04-24T07:42:40;99427.94;;;13.81;100.00
35551;BME280;21655;46.056;13.616;2023-04-24T07:45:06;99444.28;;;13.71;100.00
35551;BME280;21655;46.056;13.616;2023-04-24T07:47:32;99443.09;;;13.54;100.00
35551;BME280;21655;46.056;13.616;2023-04-24T07:49:58;99452.91;;;13.57;100.00
35551;BME280;21655;46.056;13.616;2023-04-24T07:52:24;99436.91;;;13.52;100.00
35551;BME280;21655;46.056;13.616;2023-04-24T07:54:50;99436.66;;;13.54;100.00
35551;BME280;21655;46.056;13.616;2023-04-24T07:57:16;99439.03;;;13.50;100.00
35551;BME280;21655;46.056;13.616;2023-04-24T07:59:41;99434.13;;;13.52;100.00
35551;BME280;21655;46.056;13.616;2023-04-24T08:02:07;99428.22;;;13.67;100.00
35551;BME280;21655;46.056;13.616;2023-04-24T08:04:33;99426.53;;;13.66;100.00
35551;BME280;21655;46.056;13.616;2023-04-24T08:06:58;99421.28;;;13.82;100.00
35551;BME280;21655;46.056;13.616;2023-04-24T08:09:24;99421.03;;;13.90;100.00
35551;BME280;21655;46.056;13.616;2023-04-24T08:11:49;99417.78;;;13.93;100.00
35551;BME280;21655;46.056;13.616;2023-04-24T08:14:15;99415.38;;;14.03;100.00
35551;BME280;21655;46.056;13.616;2023-04-24T08:16:41;99424.59;;;13.97;100.00
35551;BME280;21655;46.056;13.616;2023-04-24T08:19:06;99420.56;;;13.93;100.00
35551;BME280;21655;46.056;13.616;2023-04-24T08:21:32;99422.66;;;14.04;100.00
35551;BME280;21655;46.056;13.616;2023-04-24T08:23:57;99421.91;;;14.15;100.00
35551;BME280;21655;46.056;13.616;2023-04-24T08:26:23;99424.47;;;13.86;100.00
35551;BME280;21655;46.056;13.616;2023-04-24T08:28:50;99409.25;;;13.88;100.00
35551;BME280;21655;46.056;13.616;2023-04-24T08:31:15;99426.59;;;13.90;100.00
35551;BME280;21655;46.056;13.616;2023-04-24T08:33:41;99419.72;;;13.93;100.00
35551;BME280;21655;46.056;13.616;2023-04-24T08:36:07;99428.94;;;13.93;100.00
35551;BME280;21655;46.056;13.616;2023-04-24T08:38:33;99421.06;;;13.84;100.00
35551;BME280;21655;46.056;13.616;2023-04-24T08:41:00;99426.28;;;14.05;100.00
35551;BME280;21655;46.056;13.616;2023-04-24T08:43:27;99417.56;;;13.95;100.00
35551;BME280;21655;46.056;13.616;2023-04-24T08:45:55;99413.69;;;13.96;100.00
35551;BME280;21655;46.056;13.616;2023-04-24T08:48:22;99418.69;;;13.87;100.00
35551;BME280;21655;46.056;13.616;2023-04-24T08:50:50;99419.53;;;13.88;100.00
35551;BME280;21655;46.056;13.616;2023-04-24T08:53:15;99413.50;;;14.22;100.00
35551;BME280;21655;46.056;13.616;2023-04-24T08:55:43;99412.91;;;14.44;100.00
35551;BME280;21655;46.056;13.616;2023-04-24T08:58:12;99415.16;;;14.54;100.00
35551;BME280;21655;46.056;13.616;2023-04-24T09:00:39;99429.47;;;14.64;100.00
35551;BME280;21655;46.056;13.616;2023-04-24T09:03:05;99424.44;;;14.72;100.00
35551;BME280;21655;46.056;13.616;2023-04-24T09:05:32;99424.97;;;14.63;100.00
35551;BME280;21655;46.056;13.616;2023-04-24T09:07:59;99432.53;;;14.56;100.00
35551;BME280;21655;46.056;13.616;2023-04-24T09:10:27;99428.34;;;14.47;100.00
35551;BME280;21655;46.056;13.616;2023-04-24T09:12:56;99430.09;;;14.41;100.00
35551;BME280;21655;46.056;13.616;2023-04-24T09:15:24;99428.03;;;14.30;100.00
35551;BME280;21655;46.056;13.616;2023-04-24T09:17:49;99433.59;;;14.30;100.00
35551;BME280;21655;46.056;13.616;2023-04-24T09:20:15;99440.50;;;14.28;100.00
35551;BME280;21655;46.056;13.616;2023-04-24T09:22:42;99432.41;;;14.20;100.00
35551;BME280;21655;46.056;13.616;2023-04-24T09:25:09;99428.28;;;14.29;100.00
35551;BME280;21655;46.056;13.616;2023-04-24T09:27:42;99428.19;;;14.42;100.00
35551;BME280;21655;46.056;13.616;2023-04-24T09:30:08;99434.31;;;14.50;100.00
35551;BME280;21655;46.056;13.616;2023-04-24T09:32:34;99426.06;;;14.62;100.00
35551;BME280;21655;46.056;13.616;2023-04-24T09:35:13;99427.25;;;14.48;100.00
35551;BME280;21655;46.056;13.616;2023-04-24T09:37:41;99430.44;;;14.76;100.00
35551;BME280;21655;46.056;13.616;2023-04-24T09:40:27;99430.28;;;14.89;100.00
35551;BME280;21655;46.056;13.616;2023-04-24T09:42:55;99426.50;;;15.01;100.00
35551;BME280;21655;46.056;13.616;2023-04-24T09:45:22;99428.91;;;14.98;100.00
35551;BME280;21655;46.056;13.616;2023-04-24T09:47:52;99433.06;;;15.06;100.00
35551;BME280;21655;46.056;13.616;2023-04-24T09:50:21;99431.06;;;14.96;100.00
35551;BME280;21655;46.056;13.616;2023-04-24T09:52:59;99427.41;;;14.95;100.00
35551;BME280;21655;46.056;13.616;2023-04-24T09:55:27;99428.81;;;14.86;100.00
35551;BME280;21655;46.056;13.616;2023-04-24T09:57:57;99422.63;;;14.84;100.00
35551;BME280;21655;46.056;13.616;2023-04-24T10:00:32;99419.34;;;14.87;100.00
35551;BME280;21655;46.056;13.616;2023-04-24T10:03:01;99416.94;;;14.91;100.00
35551;BME280;21655;46.056;13.616;2023-04-24T10:08:01;99414.78;;;14.75;100.00
35551;BME280;21655;46.056;13.616;2023-04-24T10:10:28;99413.16;;;14.85;100.00
35551;BME280;21655;46.056;13.616;2023-04-24T10:12:54;99414.06;;;14.79;100.00
35551;BME280;21655;46.056;13.616;2023-04-24T10:15:20;99408.78;;;14.71;100.00
35551;BME280;21655;46.056;13.616;2023-04-24T10:17:50;99409.25;;;14.68;100.00
35551;BME280;21655;46.056;13.616;2023-04-24T10:20:24;99406.28;;;14.63;100.00
35551;BME280;21655;46.056;13.616;2023-04-24T10:22:52;99407.19;;;14.57;100.00
35551;BME280;21655;46.056;13.616;2023-04-24T10:25:22;99401.47;;;14.52;100.00
35551;BME280;21655;46.056;13.616;2023-04-24T10:27:49;99405.34;;;14.51;100.00
35551;BME280;21655;46.056;13.616;2023-04-24T10:30:16;99412.38;;;14.54;100.00
35551;BME280;21655;46.056;13.616;2023-04-24T10:32:42;99411.13;;;14.50;100.00
35551;BME280;21655;46.056;13.616;2023-04-24T10:35:08;99414.59;;;14.45;100.00
35551;BME280;21655;46.056;13.616;2023-04-24T10:37:37;99405.63;;;14.43;100.00
35551;BME280;21655;46.056;13.616;2023-04-24T10:40:04;99406.28;;;14.39;100.00
35551;BME280;21655;46.056;13.616;2023-04-24T10:42:30;99409.09;;;14.39;100.00
35551;BME280;21655;46.056;13.616;2023-04-24T10:44:56;99410.09;;;14.44;100.00
35551;BME280;21655;46.056;13.616;2023-04-24T10:47:23;99420.47;;;14.37;100.00
35551;BME280;21655;46.056;13.616;2023-04-24T10:49:50;99414.44;;;14.40;100.00
35551;BME280;21655;46.056;13.616;2023-04-24T10:52:16;99418.72;;;14.43;100.00
35551;BME280;21655;46.056;13.616;2023-04-24T10:54:44;99420.94;;;14.34;100.00
35551;BME280;21655;46.056;13.616;2023-04-24T11:00:20;99425.81;;;14.39;100.00
35551;BME280;21655;46.056;13.616;2023-04-24T11:02:47;99426.63;;;14.46;100.00
35551;BME280;21655;46.056;13.616;2023-04-24T11:05:18;99424.88;;;14.51;100.00
35551;BME280;21655;46.056;13.616;2023-04-24T11:08:11;99423.16;;;14.50;100.00
35551;BME280;21655;46.056;13.616;2023-04-24T11:11:01;99421.88;;;14.46;100.00
35551;BME280;21655;46.056;13.616;2023-04-24T11:16:15;99432.66;;;14.43;100.00
35551;BME280;21655;46.056;13.616;2023-04-24T11:18:44;99439.03;;;14.50;100.00
35551;BME280;21655;46.056;13.616;2023-04-24T11:21:18;99434.94;;;14.52;100.00
35551;BME280;21655;46.056;13.616;2023-04-24T11:23:45;99436.41;;;14.55;100.00
35551;BME280;21655;46.056;13.616;2023-04-24T11:28:44;99435.63;;;14.48;100.00
35551;BME280;21655;46.056;13.616;2023-04-24T11:31:35;99432.16;;;14.52;100.00
35551;BME280;21655;46.056;13.616;2023-04-24T11:34:09;99437.31;;;14.49;100.00
35551;BME280;21655;46.056;13.616;2023-04-24T11:36:36;99448.03;;;14.52;100.00
35551;BME280;21655;46.056;13.616;2023-04-24T11:39:02;99431.81;;;14.42;100.00
35551;BME280;21655;46.056;13.616;2023-04-24T11:41:28;99444.09;;;14.35;100.00
35551;BME280;21655;46.056;13.616;2023-04-24T11:43:54;99443.00;;;14.36;100.00
35551;BME280;21655;46.056;13.616;2023-04-24T11:46:21;99448.00;;;14.27;100.00
35551;BME280;21655;46.056;13.616;2023-04-24T11:48:47;99449.25;;;14.31;100.00
35551;BME280;21655;46.056;13.616;2023-04-24T11:51:15;99445.91;;;14.23;100.00
35551;BME280;21655;46.056;13.616;2023-04-24T11:53:41;99441.66;;;14.20;100.00
35551;BME280;21655;46.056;13.616;2023-04-24T11:56:08;99451.66;;;14.28;100.00
35551;BME280;21655;46.056;13.616;2023-04-24T11:58:44;99445.78;;;14.36;100.00
35551;BME280;21655;46.056;13.616;2023-04-24T12:01:10;99448.19;;;14.32;100.00
35551;BME280;21655;46.056;13.616;2023-04-24T12:03:35;99447.97;;;14.34;100.00
35551;BME280;21655;46.056;13.616;2023-04-24T12:06:11;99448.53;;;14.42;100.00
35551;BME280;21655;46.056;13.616;2023-04-24T12:08:37;99445.06;;;14.47;100.00
35551;BME280;21655;46.056;13.616;2023-04-24T12:11:04;99440.56;;;14.46;100.00
35551;BME280;21655;46.056;13.616;2023-04-24T12:13:33;99439.94;;;14.44;100.00
35551;BME280;21655;46.056;13.616;2023-04-24T12:15:59;99439.91;;;14.50;100.00
35551;BME280;21655;46.056;13.616;2023-04-24T12:18:25;99437.94;;;14.51;100.00
35551;BME280;21655;46.056;13.616;2023-04-24T12:20:51;99440.84;;;14.38;100.00
35551;BME280;21655;46.056;13.616;2023-04-24T12:23:16;99442.16;;;14.35;100.00
35551;BME280;21655;46.056;13.616;2023-04-24T12:26:00;99440.56;;;14.46;100.00
35551;BME280;21655;46.056;13.616;2023-04-24T12:28:35;99437.16;;;14.44;100.00
35551;BME280;21655;46.056;13.616;2023-04-24T12:31:01;99442.38;;;14.58;100.00
35551;BME280;21655;46.056;13.616;2023-04-24T12:33:27;99440.09;;;14.73;100.00
35551;BME280;21655;46.056;13.616;2023-04-24T12:35:53;99440.38;;;14.65;100.00
35551;BME280;21655;46.056;13.616;2023-04-24T12:38:22;99438.06;;;14.38;100.00
35551;BME280;21655;46.056;13.616;2023-04-24T12:41:07;99434.22;;;14.32;100.00
35551;BME280;21655;46.056;13.616;2023-04-24T12:43:33;99436.41;;;14.30;100.00
35551;BME280;21655;46.056;13.616;2023-04-24T12:45:59;99433.28;;;14.14;100.00
35551;BME280;21655;46.056;13.616;2023-04-24T12:48:26;99430.81;;;14.30;100.00